Airfield :
LOGIN :

Register | Disclaimer

   EN    FR    IT 

 










Legend :    VFR   Marginal VFR   IFR   Intensive IFR   Very Intensive IFR
Visi :
Ceiling :
>= 8 km
>= 3000ft
5 to 8 km
1000 to 3000 ft
1500m to 5 km
500 to 1000 ft
800 to 1500m
200 to 500 ft
< 800m
< 200 ft
Symbols :   Thunderstorms  Fog  Heavy snow  Heavy precipitations  Wind > 20 kt
SIGMETs :     Misc.  Thunderstorms  Icing  Turbulence  Mountain Waves  Volcanic Ashes






- Airport Elevation : 25 ft
- IATA code : QCY


EGXC - RAF Coningsby

CURRENT METAR :
  • 102250Z 25012KT CAVOK 06/04 Q1003 RMK BLU

EXPIRED METARs :
  • 102150Z 26011KT CAVOK 07/05 Q1002 RMK BLU
  • 102050Z 26013KT 9999 -RA SCT030 SCT050 BKN090 09/07 Q1000 RMK BLU

TAF TAF EGXC
Valid from the 11 at 00:00 until the 11 at 18:00 UTC


102228Z 1100/1118 24010KT CAVOK
PROB30
TEMPO 1114/1116 SCT016
PROB30
TEMPO 1116/1118 7000 -RA SCT012



MET'MAP, your aeronautical weather chart ! - Copyright ORBIFLY December 2007 - Disclaimer

ORBIFLY MET'MAP TEAM :

Programming & Development : Alexandra Zaïnal
Concept & original design : Baudouin d'Aumeries
Assistance for programming : Marc-Olivier Méhu
Technical & hardware support : Manuel Goepfert

Contact : metmap@orbifly.com




SOURCES & CREDITS :

   NOAA